createdAt,value
2018-02-04T00:00:54.459Z,14.23
2018-02-04T00:03:22.041Z,15.10
2018-02-04T00:05:49.636Z,14.93
2018-02-04T00:08:17.216Z,15.70
2018-02-04T00:10:44.794Z,15.60
2018-02-04T00:13:12.394Z,13.90
2018-02-04T00:15:40.723Z,15.03
2018-02-04T00:18:09.243Z,13.17
2018-02-04T00:20:37.617Z,12.43
2018-02-04T00:23:05.201Z,16.33
2018-02-04T00:25:33.605Z,15.77
2018-02-04T00:28:01.193Z,13.53
2018-02-04T00:30:28.795Z,12.93
2018-02-04T00:32:56.367Z,12.53
2018-02-04T00:35:23.952Z,12.23
2018-02-04T00:37:51.512Z,12.67
2018-02-04T00:40:19.859Z,12.60
2018-02-04T00:42:47.519Z,11.40
2018-02-04T00:45:15.132Z,10.93
2018-02-04T00:47:43.454Z,11.63
2018-02-04T00:50:11.114Z,15.00
2018-02-04T00:52:38.736Z,11.97
2018-02-04T00:55:07.077Z,12.67
2018-02-04T00:57:34.688Z,11.53
2018-02-04T01:00:03.069Z,12.73
2018-02-04T01:02:31.401Z,12.77
2018-02-04T01:04:58.987Z,11.30
2018-02-04T01:07:27.363Z,13.57
2018-02-04T01:09:55.000Z,14.00
2018-02-04T01:12:23.207Z,11.83
2018-02-04T01:14:50.824Z,12.53
2018-02-04T01:17:21.399Z,12.60
2018-02-04T01:19:49.465Z,13.47
2018-02-04T01:22:17.109Z,12.53
2018-02-04T01:24:46.036Z,14.67
2018-02-04T01:27:13.600Z,13.27
2018-02-04T01:29:41.190Z,13.13
2018-02-04T01:32:08.790Z,13.43
2018-02-04T01:34:36.362Z,13.30
2018-02-04T01:37:03.943Z,13.63
2018-02-04T01:39:31.522Z,12.87
2018-02-04T01:41:59.115Z,13.77
2018-02-04T01:44:26.696Z,12.90
2018-02-04T01:46:54.313Z,14.00
2018-02-04T01:49:21.892Z,14.10
2018-02-04T01:51:49.501Z,12.37
2018-02-04T01:54:17.913Z,13.03
2018-02-04T01:56:45.555Z,15.97
2018-02-04T01:59:14.041Z,14.67
2018-02-04T02:01:42.404Z,12.77
2018-02-04T02:04:10.781Z,12.47
2018-02-04T02:06:38.390Z,13.73
2018-02-04T02:09:06.008Z,13.20
2018-02-04T02:11:34.613Z,12.97
2018-02-04T02:14:02.191Z,11.27
2018-02-04T02:16:30.672Z,11.93
2018-02-04T02:18:58.273Z,11.63
2018-02-04T02:21:25.854Z,12.40
2018-02-04T02:23:53.446Z,10.13
2018-02-04T02:26:22.392Z,10.13
2018-02-04T02:28:50.830Z,10.13
2018-02-04T02:31:19.199Z,10.23
2018-02-04T02:33:46.811Z,10.63
2018-02-04T02:36:14.463Z,10.27
2018-02-04T02:38:42.059Z,9.07
2018-02-04T02:41:09.653Z,10.77
2018-02-04T02:43:37.837Z,9.53
2018-02-04T02:46:05.431Z,8.83
2018-02-04T02:48:34.541Z,10.37
2018-02-04T02:51:03.631Z,9.97
2018-02-04T02:53:31.975Z,9.10
2018-02-04T02:55:59.585Z,9.07
2018-02-04T02:58:27.960Z,9.33
2018-02-04T03:00:56.272Z,8.83
2018-02-04T03:03:23.853Z,8.57
2018-02-04T03:05:51.474Z,8.80
2018-02-04T03:08:20.797Z,11.50
2018-02-04T03:10:48.429Z,10.97
2018-02-04T03:13:16.043Z,9.37
2018-02-04T03:15:43.646Z,11.23
2018-02-04T03:18:11.268Z,8.47
2018-02-04T03:20:40.321Z,10.27
2018-02-04T03:23:07.905Z,9.80
2018-02-04T03:25:35.538Z,9.10
2018-02-04T03:28:03.145Z,10.17
2018-02-04T03:30:31.456Z,10.80
2018-02-04T03:32:59.031Z,8.43
2018-02-04T03:35:28.403Z,9.90
2018-02-04T03:37:57.597Z,10.93
2018-02-04T03:40:25.958Z,9.63
2018-02-04T03:42:53.552Z,8.77
2018-02-04T03:45:21.134Z,8.93
2018-02-04T03:47:48.704Z,9.30
2018-02-04T03:50:16.262Z,10.47
2018-02-04T03:52:43.840Z,10.00
2018-02-04T03:55:11.438Z,9.13
2018-02-04T03:57:38.989Z,9.97
2018-02-04T04:00:06.563Z,10.70
2018-02-04T04:02:34.134Z,9.50
2018-02-04T04:05:02.489Z,9.73
2018-02-04T04:07:30.063Z,10.30
2018-02-04T04:09:57.645Z,11.50
2018-02-04T04:12:25.243Z,8.57
2018-02-04T04:14:53.575Z,9.80
2018-02-04T04:17:21.141Z,12.37
2018-02-04T04:19:48.687Z,8.37
2018-02-04T04:22:16.268Z,9.30
2018-02-04T04:24:43.843Z,9.13
2018-02-04T04:27:11.416Z,9.77
2018-02-04T04:29:38.978Z,9.40
2018-02-04T04:32:07.062Z,8.93
2018-02-04T04:34:34.650Z,8.57
2018-02-04T04:37:02.998Z,7.63
2018-02-04T04:39:30.595Z,7.53
2018-02-04T04:41:58.934Z,9.43
2018-02-04T04:44:26.493Z,7.97
2018-02-04T04:46:54.518Z,9.47
2018-02-04T04:49:22.863Z,8.20
2018-02-04T04:51:50.449Z,9.50
2018-02-04T04:54:18.031Z,8.83
2018-02-04T04:56:46.381Z,8.67
2018-02-04T04:59:13.952Z,7.57
2018-02-04T05:01:41.523Z,8.57
2018-02-04T05:04:09.116Z,8.83
2018-02-04T05:06:36.686Z,10.17
2018-02-04T05:09:04.290Z,8.63
2018-02-04T05:11:31.878Z,9.83
2018-02-04T05:14:00.937Z,8.23
2018-02-04T05:16:28.550Z,8.57
2018-02-04T05:18:56.258Z,10.80
2018-02-04T05:21:23.835Z,8.83
2018-02-04T05:23:51.434Z,10.10
2018-02-04T05:26:19.033Z,9.47
2018-02-04T05:28:47.360Z,11.43
2018-02-04T05:31:15.411Z,11.80
2018-02-04T05:33:42.997Z,11.40
2018-02-04T05:36:10.563Z,10.03
2018-02-04T05:38:38.610Z,11.33
2018-02-04T05:41:06.182Z,12.40
2018-02-04T05:43:33.764Z,8.40
2018-02-04T05:46:02.234Z,12.10
2018-02-04T05:48:29.820Z,13.40
2018-02-04T05:50:57.418Z,13.43
2018-02-04T05:53:24.992Z,10.17
2018-02-04T05:55:52.542Z,9.00
2018-02-04T05:58:20.126Z,9.97
2018-02-04T06:00:48.562Z,9.57
2018-02-04T06:03:16.140Z,10.23
2018-02-04T06:05:43.687Z,11.00
2018-02-04T06:08:11.270Z,11.60
2018-02-04T06:10:38.825Z,9.97
2018-02-04T06:13:06.453Z,12.83
2018-02-04T06:15:34.123Z,10.67
2018-02-04T06:18:01.710Z,10.97
2018-02-04T06:20:29.302Z,11.07
2018-02-04T06:22:56.914Z,11.57
2018-02-04T06:25:24.512Z,12.90
2018-02-04T06:27:52.140Z,12.90
2018-02-04T06:30:20.492Z,13.20
2018-02-04T06:32:48.624Z,12.17
2018-02-04T06:35:16.188Z,12.07
2018-02-04T06:37:44.518Z,13.20
2018-02-04T06:40:13.590Z,10.60
2018-02-04T06:42:41.166Z,11.73
2018-02-04T06:45:08.762Z,11.53
2018-02-04T06:47:37.141Z,13.03
2018-02-04T06:50:05.313Z,12.03
2018-02-04T06:52:32.953Z,11.80
2018-02-04T06:55:00.555Z,11.30
2018-02-04T06:57:28.143Z,11.03
2018-02-04T06:59:55.761Z,10.57
2018-02-04T07:02:23.317Z,11.67
2018-02-04T07:04:50.943Z,11.80
2018-02-04T07:07:18.528Z,12.10
2018-02-04T07:09:46.106Z,10.93
2018-02-04T07:12:14.552Z,13.23
2018-02-04T07:14:42.194Z,14.07
2018-02-04T07:17:09.789Z,12.63
2018-02-04T07:19:37.414Z,11.43
2018-02-04T07:22:05.303Z,11.30
2018-02-04T07:24:32.888Z,11.23
2018-02-04T07:27:00.449Z,11.83
2018-02-04T07:29:28.781Z,11.23
2018-02-04T07:31:56.345Z,18.90
2018-02-04T07:34:25.415Z,14.80
2018-02-04T07:36:53.005Z,15.30
2018-02-04T07:39:21.492Z,12.97
2018-02-04T07:41:50.745Z,12.83
2018-02-04T07:44:19.085Z,12.00
2018-02-04T07:46:46.662Z,11.83
2018-02-04T07:49:14.237Z,11.63
2018-02-04T07:51:43.287Z,12.93
2018-02-04T07:54:10.862Z,11.43
2018-02-04T07:56:38.428Z,11.37
2018-02-04T07:59:05.994Z,13.70
2018-02-04T08:01:34.332Z,40.80
2018-02-04T08:04:02.693Z,49.13
2018-02-04T08:06:30.293Z,18.80
2018-02-04T08:08:57.875Z,25.90
2018-02-04T08:11:26.023Z,19.47
2018-02-04T08:13:53.641Z,15.93
2018-02-04T08:16:21.211Z,21.87
2018-02-04T08:18:48.777Z,29.70
2018-02-04T08:21:16.358Z,38.90
2018-02-04T08:23:43.917Z,17.83
2018-02-04T08:26:11.611Z,39.60
2018-02-04T08:28:39.932Z,13.83
2018-02-04T08:31:07.964Z,32.80
2018-02-04T08:33:36.304Z,26.97
2018-02-04T08:36:03.900Z,20.93
2018-02-04T08:38:31.518Z,21.63
2018-02-04T08:40:59.128Z,19.90
2018-02-04T08:43:26.732Z,15.97
2018-02-04T08:45:54.392Z,26.23
2018-02-04T08:48:22.007Z,16.27
2018-02-04T08:50:49.604Z,12.37
2018-02-04T08:53:19.383Z,11.57
2018-02-04T08:55:46.991Z,16.60
2018-02-04T08:58:15.395Z,11.37
2018-02-04T09:00:43.053Z,12.57
2018-02-04T09:03:11.281Z,10.40
2018-02-04T09:05:38.898Z,15.13
2018-02-04T09:08:06.512Z,10.97
2018-02-04T09:10:34.201Z,12.00
2018-02-04T09:13:01.822Z,9.57
2018-02-04T09:15:29.439Z,10.33
2018-02-04T09:17:57.874Z,9.67
2018-02-04T09:20:25.470Z,12.13
2018-02-04T09:22:54.501Z,9.67
2018-02-04T09:25:22.136Z,10.53
2018-02-04T09:27:50.636Z,12.90
2018-02-04T09:30:19.072Z,10.30
2018-02-04T09:32:46.660Z,10.40
2018-02-04T09:35:14.274Z,9.73
2018-02-04T09:37:42.517Z,9.53
2018-02-04T09:40:10.723Z,10.17
2018-02-04T09:42:39.651Z,9.40
2018-02-04T09:45:07.239Z,9.53
2018-02-04T09:47:34.887Z,9.53
2018-02-04T09:50:03.056Z,7.90
2018-02-04T09:52:30.608Z,10.93
2018-02-04T09:54:58.961Z,8.83
2018-02-04T09:57:27.340Z,7.63
2018-02-04T09:59:55.799Z,9.57
2018-02-04T10:02:23.436Z,10.17
2018-02-04T10:04:51.086Z,10.20
2018-02-04T10:07:18.676Z,8.73
2018-02-04T10:09:46.266Z,9.50
2018-02-04T10:12:13.848Z,7.23
2018-02-04T10:14:41.466Z,7.87
2018-02-04T10:17:09.042Z,9.50
2018-02-04T10:19:37.373Z,8.80
2018-02-04T10:22:05.739Z,7.27
2018-02-04T10:24:33.350Z,7.87
2018-02-04T10:27:00.931Z,8.77
2018-02-04T10:29:28.480Z,5.87
2018-02-04T10:31:56.068Z,7.07
2018-02-04T10:34:23.642Z,10.50
2018-02-04T10:36:51.209Z,9.07
2018-02-04T10:39:18.770Z,6.37
2018-02-04T10:41:46.356Z,7.07
2018-02-04T10:44:13.930Z,7.07
2018-02-04T10:46:41.493Z,8.30
2018-02-04T10:49:09.088Z,8.90
2018-02-04T10:51:42.280Z,7.73
2018-02-04T10:54:09.865Z,6.83
2018-02-04T10:56:37.402Z,8.33
2018-02-04T10:59:05.760Z,8.63
2018-02-04T11:01:33.980Z,7.23
2018-02-04T11:04:01.585Z,7.27
2018-02-04T11:06:29.186Z,10.37
2018-02-04T11:08:57.563Z,9.53
2018-02-04T11:11:25.209Z,8.07
2018-02-04T11:13:52.799Z,13.97
2018-02-04T11:16:20.388Z,8.00
2018-02-04T11:18:47.979Z,8.57
2018-02-04T11:21:15.536Z,8.10
2018-02-04T11:23:43.112Z,7.73
2018-02-04T11:26:10.690Z,7.00
2018-02-04T11:28:38.248Z,7.80
2018-02-04T11:31:17.636Z,7.83
2018-02-04T11:33:46.000Z,7.17
2018-02-04T11:36:14.368Z,8.80
2018-02-04T11:38:41.935Z,7.73
2018-02-04T11:41:11.360Z,7.77
2018-02-04T11:43:40.117Z,7.70
2018-02-04T11:46:07.724Z,6.83
2018-02-04T11:48:36.095Z,9.07
2018-02-04T11:51:03.690Z,7.80
2018-02-04T11:53:31.309Z,7.80
2018-02-04T11:55:58.898Z,7.23
2018-02-04T11:58:26.501Z,6.63
2018-02-04T12:00:54.179Z,7.10
2018-02-04T12:03:23.067Z,6.03
2018-02-04T12:05:51.335Z,6.47
2018-02-04T12:08:18.903Z,6.93
2018-02-04T12:10:46.465Z,6.77
2018-02-04T12:13:14.101Z,9.67
2018-02-04T12:15:43.398Z,7.97
2018-02-04T12:18:11.074Z,7.33
2018-02-04T12:20:38.654Z,7.30
2018-02-04T12:23:08.755Z,10.00
2018-02-04T12:25:37.110Z,9.10
2018-02-04T12:28:04.674Z,7.30
2018-02-04T12:30:32.286Z,10.07
2018-02-04T12:32:59.861Z,7.67
2018-02-04T12:35:27.424Z,9.27
2018-02-04T12:37:56.041Z,8.37
2018-02-04T12:40:24.325Z,8.77
2018-02-04T12:42:51.940Z,8.73
2018-02-04T12:45:20.307Z,8.50
2018-02-04T12:47:48.461Z,7.33
2018-02-04T12:50:16.019Z,8.47
2018-02-04T12:52:43.653Z,8.30
2018-02-04T12:55:11.207Z,8.30
2018-02-04T12:57:39.513Z,7.70
2018-02-04T13:00:07.130Z,7.80
2018-02-04T13:02:34.693Z,7.97
2018-02-04T13:05:02.630Z,8.07
2018-02-04T13:07:30.222Z,7.60
2018-02-04T13:09:57.826Z,8.20
2018-02-04T13:12:25.435Z,8.53
2018-02-04T13:14:53.032Z,8.60
2018-02-04T13:17:22.001Z,8.63
2018-02-04T13:19:49.584Z,8.40
2018-02-04T13:22:18.065Z,7.53
2018-02-04T13:24:45.635Z,9.70
2018-02-04T13:27:13.227Z,10.70
2018-02-04T13:29:40.865Z,6.80
2018-02-04T13:32:08.431Z,7.23
2018-02-04T13:34:36.017Z,9.10
2018-02-04T13:37:03.609Z,8.77
2018-02-04T13:39:31.210Z,7.73
2018-02-04T13:41:58.792Z,8.47
2018-02-04T13:44:26.448Z,7.40
2018-02-04T13:46:54.072Z,8.17
2018-02-04T13:49:21.656Z,8.47
2018-02-04T13:51:49.279Z,7.53
2018-02-04T13:54:17.587Z,7.67
2018-02-04T13:56:45.205Z,7.97
2018-02-04T13:59:13.554Z,8.60
2018-02-04T14:01:41.207Z,6.63
2018-02-04T14:04:08.815Z,6.63
2018-02-04T14:06:36.391Z,8.17
2018-02-04T14:09:04.770Z,8.17
2018-02-04T14:11:33.205Z,7.13
2018-02-04T14:14:00.861Z,7.43
2018-02-04T14:16:28.434Z,6.90
2018-02-04T14:18:56.009Z,8.50
2018-02-04T14:21:23.598Z,8.93
2018-02-04T14:23:51.970Z,7.07
2018-02-04T14:26:19.544Z,9.90
2018-02-04T14:28:47.100Z,8.93
2018-02-04T14:31:14.682Z,7.10
2018-02-04T14:33:42.288Z,6.63
2018-02-04T14:36:09.879Z,9.03
2018-02-04T14:38:37.457Z,7.57
2018-02-04T14:41:05.031Z,7.43
2018-02-04T14:43:32.662Z,7.87
2018-02-04T14:46:00.234Z,7.47
2018-02-04T14:48:27.821Z,9.27
2018-02-04T14:50:55.439Z,11.37
2018-02-04T14:53:23.011Z,7.97
2018-02-04T14:55:50.599Z,7.63
2018-02-04T14:58:18.170Z,11.63
2018-02-04T15:00:46.923Z,9.87
2018-02-04T15:03:15.302Z,11.07
2018-02-04T15:05:43.656Z,12.70
2018-02-04T15:08:11.256Z,8.50
2018-02-04T15:10:38.835Z,29.10
2018-02-04T15:13:06.450Z,14.93
2018-02-04T15:15:34.032Z,7.87
2018-02-04T15:18:02.381Z,8.67
2018-02-04T15:20:29.968Z,8.27
2018-02-04T15:22:57.535Z,8.60
2018-02-04T15:25:25.121Z,10.70
2018-02-04T15:27:54.817Z,10.43
2018-02-04T15:30:23.189Z,9.77
2018-02-04T15:32:50.815Z,9.23
2018-02-04T15:35:18.389Z,10.23
2018-02-04T15:37:45.967Z,9.30
2018-02-04T15:40:13.574Z,8.90
2018-02-04T15:42:41.156Z,10.20
2018-02-04T15:45:08.770Z,9.37
2018-02-04T15:47:36.370Z,8.03
2018-02-04T15:50:04.725Z,9.37
2018-02-04T15:52:32.305Z,8.40
2018-02-04T15:55:00.686Z,9.87
2018-02-04T15:57:29.136Z,10.20
2018-02-04T15:59:56.826Z,10.47
2018-02-04T16:02:24.452Z,10.43
2018-02-04T16:04:52.042Z,9.47
2018-02-04T16:07:19.609Z,10.43
2018-02-04T16:09:47.333Z,11.77
2018-02-04T16:12:14.925Z,9.90
2018-02-04T16:14:42.501Z,10.67
2018-02-04T16:17:10.103Z,10.37
2018-02-04T16:19:38.549Z,11.70
2018-02-04T16:22:06.217Z,10.27
2018-02-04T16:24:33.857Z,10.17
2018-02-04T16:27:01.457Z,12.57
2018-02-04T16:29:29.028Z,12.63
2018-02-04T16:31:56.632Z,11.17
2018-02-04T16:34:24.248Z,10.97
2018-02-04T16:36:52.384Z,10.63
2018-02-04T16:39:19.980Z,9.77
2018-02-04T16:41:47.973Z,10.97
2018-02-04T16:44:15.571Z,12.63
2018-02-04T16:46:43.925Z,16.90
2018-02-04T16:49:11.501Z,11.07
2018-02-04T16:51:41.222Z,21.27
2018-02-04T16:54:08.918Z,13.80
2018-02-04T16:56:36.521Z,16.40
2018-02-04T16:59:04.116Z,15.97
2018-02-04T17:01:32.479Z,13.63
2018-02-04T17:04:00.040Z,15.47
2018-02-04T17:06:27.695Z,18.00
2018-02-04T17:08:55.914Z,21.93
2018-02-04T17:11:24.252Z,14.17
2018-02-04T17:13:51.820Z,15.63
2018-02-04T17:16:19.450Z,16.73
2018-02-04T17:18:47.776Z,14.93
2018-02-04T17:21:15.361Z,18.53
2018-02-04T17:23:42.966Z,15.77
2018-02-04T17:26:10.548Z,15.70
2018-02-04T17:28:38.126Z,16.10
2018-02-04T17:31:05.726Z,17.20
2018-02-04T17:33:34.622Z,16.20
2018-02-04T17:36:03.107Z,16.70
2018-02-04T17:38:30.703Z,16.70
2018-02-04T17:40:58.271Z,16.23
2018-02-04T17:43:25.883Z,16.70
2018-02-04T17:45:53.468Z,15.00
2018-02-04T17:48:21.055Z,14.47
2018-02-04T17:50:49.382Z,15.53
2018-02-04T17:53:17.009Z,15.97
2018-02-04T17:55:44.582Z,14.53
2018-02-04T17:58:12.206Z,16.83
2018-02-04T18:00:40.420Z,17.47
2018-02-04T18:03:08.000Z,17.07
2018-02-04T18:05:35.592Z,15.67
2018-02-04T18:08:04.092Z,16.20
2018-02-04T18:10:31.710Z,19.07
2018-02-04T18:12:59.382Z,17.43
2018-02-04T18:15:26.979Z,17.33
2018-02-04T18:17:54.579Z,18.63
2018-02-04T18:20:22.175Z,19.07
2018-02-04T18:22:50.525Z,18.33
2018-02-04T18:25:18.112Z,23.23
2018-02-04T18:27:46.272Z,17.73
2018-02-04T18:30:14.496Z,18.17
2018-02-04T18:32:42.056Z,22.03
2018-02-04T18:35:09.631Z,32.67
2018-02-04T18:37:37.237Z,20.43
2018-02-04T18:40:05.604Z,21.17
2018-02-04T18:42:33.197Z,18.47
2018-02-04T18:45:01.594Z,18.73
2018-02-04T18:47:29.934Z,19.30
2018-02-04T18:49:57.668Z,22.97
2018-02-04T18:52:25.288Z,21.20
2018-02-04T18:54:52.873Z,20.20
2018-02-04T18:57:20.482Z,22.03
2018-02-04T18:59:48.067Z,20.07
2018-02-04T19:02:15.732Z,20.43
2018-02-04T19:04:43.351Z,22.13
2018-02-04T19:07:10.917Z,22.87
2018-02-04T19:09:39.371Z,22.93
2018-02-04T19:12:07.001Z,20.97
2018-02-04T19:14:34.575Z,23.83
2018-02-04T19:17:02.148Z,24.40
2018-02-04T19:19:30.577Z,20.10
2018-02-04T19:21:58.228Z,20.90
2018-02-04T19:24:26.551Z,22.23
2018-02-04T19:26:54.143Z,22.10
2018-02-04T19:29:21.760Z,20.77
2018-02-04T19:31:49.338Z,21.03
2018-02-04T19:34:16.992Z,22.33
2018-02-04T19:36:44.618Z,20.73
2018-02-04T19:39:12.216Z,20.33
2018-02-04T19:41:39.837Z,24.50
2018-02-04T19:44:07.416Z,20.83
2018-02-04T19:46:35.017Z,20.63
2018-02-04T19:49:02.663Z,22.37
2018-02-04T19:51:30.299Z,21.73
2018-02-04T19:53:58.131Z,20.63
2018-02-04T19:56:25.782Z,21.00
2018-02-04T19:58:53.425Z,23.73
2018-02-04T20:01:21.917Z,23.77
2018-02-04T20:03:50.821Z,22.33
2018-02-04T20:06:19.249Z,22.03
2018-02-04T20:08:46.845Z,23.80
2018-02-04T20:11:15.675Z,26.97
2018-02-04T20:13:43.320Z,24.03
2018-02-04T20:16:11.750Z,25.57
2018-02-04T20:18:40.552Z,21.43
2018-02-04T20:21:08.160Z,24.20
2018-02-04T20:23:35.812Z,24.03
2018-02-04T20:26:03.466Z,25.20
2018-02-04T20:28:31.075Z,23.63
2018-02-04T20:30:58.721Z,22.33
2018-02-04T20:33:26.407Z,22.30
2018-02-04T20:35:54.039Z,24.53
2018-02-04T20:38:21.649Z,24.37
2018-02-04T20:40:49.329Z,23.57
2018-02-04T20:43:16.975Z,22.97
2018-02-04T20:45:45.369Z,22.27
2018-02-04T20:48:13.012Z,25.83
2018-02-04T20:50:41.368Z,20.63
2018-02-04T20:53:08.940Z,22.47
2018-02-04T20:55:36.560Z,27.00
2018-02-04T20:58:04.194Z,21.93
2018-02-04T21:00:32.526Z,22.90
2018-02-04T21:03:00.871Z,24.47
2018-02-04T21:05:29.349Z,23.30
2018-02-04T21:07:57.765Z,21.40
2018-02-04T21:10:25.372Z,23.67
2018-02-04T21:12:52.939Z,22.57
2018-02-04T21:15:21.681Z,23.33
2018-02-04T21:17:49.263Z,21.57
2018-02-04T21:20:16.836Z,19.30
2018-02-04T21:22:45.970Z,24.80
2018-02-04T21:25:15.270Z,23.97
2018-02-04T21:27:43.628Z,24.13
2018-02-04T21:30:12.227Z,21.60
2018-02-04T21:32:39.821Z,23.13
2018-02-04T21:35:08.194Z,24.27
2018-02-04T21:37:36.548Z,25.73
2018-02-04T21:40:04.136Z,23.47
2018-02-04T21:42:31.714Z,26.00
2018-02-04T21:45:00.079Z,26.30
2018-02-04T21:47:27.660Z,24.07
2018-02-04T21:49:56.123Z,26.80
2018-02-04T21:52:23.759Z,25.30
2018-02-04T21:54:51.629Z,27.97
2018-02-04T21:57:21.783Z,25.73
2018-02-04T21:59:49.333Z,26.63
2018-02-04T22:02:16.887Z,32.83
2018-02-04T22:04:45.357Z,29.07
2018-02-04T22:07:13.736Z,31.40
2018-02-04T22:09:41.304Z,28.50
2018-02-04T22:12:08.900Z,30.23
2018-02-04T22:14:36.622Z,28.70
2018-02-04T22:17:04.176Z,28.43
2018-02-04T22:19:31.766Z,27.97
2018-02-04T22:21:59.362Z,26.27
2018-02-04T22:24:27.070Z,24.83
2018-02-04T22:26:54.799Z,24.13
2018-02-04T22:29:22.367Z,22.67
2018-02-04T22:31:49.922Z,23.17
2018-02-04T22:34:17.530Z,22.57
2018-02-04T22:36:45.873Z,22.53
2018-02-04T22:39:13.433Z,20.47
2018-02-04T22:41:41.015Z,23.87
2018-02-04T22:44:08.598Z,23.93
2018-02-04T22:46:36.947Z,21.73
2018-02-04T22:49:05.911Z,23.60
2018-02-04T22:51:33.471Z,22.23
2018-02-04T22:54:01.036Z,24.37
2018-02-04T22:56:29.509Z,23.20
2018-02-04T22:58:57.057Z,24.37
2018-02-04T23:01:25.378Z,26.50
2018-02-04T23:03:52.955Z,25.70
2018-02-04T23:06:21.375Z,25.70
2018-02-04T23:08:48.926Z,28.67
2018-02-04T23:11:16.532Z,23.93
2018-02-04T23:13:44.919Z,26.73
2018-02-04T23:16:12.445Z,21.03
2018-02-04T23:18:40.031Z,26.70
2018-02-04T23:21:08.402Z,25.67
2018-02-04T23:23:35.981Z,26.40
2018-02-04T23:26:04.359Z,28.27
2018-02-04T23:28:32.709Z,27.77
2018-02-04T23:31:00.300Z,26.13
2018-02-04T23:33:28.647Z,26.27
2018-02-04T23:35:56.209Z,29.37
2018-02-04T23:38:24.605Z,26.53
2018-02-04T23:40:52.187Z,25.97
2018-02-04T23:43:19.768Z,28.20
2018-02-04T23:45:47.350Z,27.70
2018-02-04T23:48:14.924Z,27.53
2018-02-04T23:50:42.496Z,28.57
2018-02-04T23:53:10.076Z,30.07
2018-02-04T23:55:37.693Z,28.17
2018-02-04T23:58:07.470Z,31.07
